createdAt,value
2023-04-01T00:00:09.488Z,22.08
2023-04-01T00:02:39.565Z,20.25
2023-04-01T00:05:07.540Z,18.95
2023-04-01T00:07:34.832Z,16.92
2023-04-01T00:10:02.032Z,17.90
2023-04-01T00:12:30.095Z,19.50
2023-04-01T00:14:57.231Z,21.52
2023-04-01T00:17:24.591Z,21.45
2023-04-01T00:19:51.777Z,18.20
2023-04-01T00:22:18.866Z,22.27
2023-04-01T00:24:46.009Z,21.92
2023-04-01T00:27:13.091Z,22.83
2023-04-01T00:29:43.939Z,19.67
2023-04-01T00:32:11.916Z,18.67
2023-04-01T00:34:39.050Z,20.67
2023-04-01T00:37:06.393Z,24.00
2023-04-01T00:39:34.393Z,19.33
2023-04-01T00:42:03.047Z,19.92
2023-04-01T00:44:33.927Z,19.42
2023-04-01T00:47:02.342Z,23.73
2023-04-01T00:49:45.127Z,23.08
2023-04-01T00:52:15.601Z,18.83
2023-04-01T00:54:47.057Z,18.40
2023-04-01T00:57:19.640Z,17.70
2023-04-01T00:59:51.092Z,21.33
2023-04-01T01:02:18.608Z,19.10
2023-04-01T01:04:46.820Z,23.15
2023-04-01T01:07:51.112Z,22.75
2023-04-01T01:10:31.373Z,21.55
2023-04-01T01:13:18.298Z,20.38
2023-04-01T01:16:12.046Z,20.35
2023-04-01T01:18:50.700Z,22.30
2023-04-01T01:21:39.514Z,18.55
2023-04-01T01:24:30.975Z,23.27
2023-04-01T01:27:00.950Z,21.20
2023-04-01T01:29:49.741Z,27.20
2023-04-01T01:32:16.853Z,22.95
2023-04-01T01:35:05.732Z,20.92
2023-04-01T01:37:34.016Z,24.70
2023-04-01T01:40:07.044Z,19.42
2023-04-01T01:42:40.473Z,21.52
2023-04-01T01:45:11.171Z,23.42
2023-04-01T01:47:39.820Z,18.98
2023-04-01T01:50:09.279Z,28.90
2023-04-01T01:52:36.891Z,25.52
2023-04-01T01:55:04.931Z,24.35
2023-04-01T01:57:46.078Z,21.75
2023-04-01T02:00:18.428Z,18.70
2023-04-01T02:02:49.017Z,21.13
2023-04-01T02:05:20.837Z,19.52
2023-04-01T02:07:57.040Z,18.77
2023-04-01T02:10:26.668Z,20.55
2023-04-01T02:12:59.899Z,21.55
2023-04-01T02:15:31.933Z,19.88
2023-04-01T02:17:59.389Z,18.40
2023-04-01T02:20:30.181Z,19.27
2023-04-01T02:23:00.789Z,17.35
2023-04-01T02:25:36.008Z,17.45
2023-04-01T02:28:07.017Z,18.50
2023-04-01T02:30:37.044Z,19.95
2023-04-01T02:33:06.589Z,19.42
2023-04-01T02:35:37.600Z,20.05
2023-04-01T02:40:43.884Z,19.85
2023-04-01T02:43:11.243Z,18.23
2023-04-01T02:45:38.559Z,23.90
2023-04-01T02:48:06.454Z,21.52
2023-04-01T02:50:33.596Z,24.67
2023-04-01T02:53:00.692Z,22.58
2023-04-01T02:55:27.886Z,24.88
2023-04-01T02:57:55.009Z,27.85
2023-04-01T03:00:22.195Z,22.45
2023-04-01T03:02:49.543Z,23.20
2023-04-01T03:05:16.737Z,24.65
2023-04-01T03:07:44.555Z,26.33
2023-04-01T03:10:12.072Z,23.88
2023-04-01T03:12:40.021Z,29.27
2023-04-01T03:15:10.650Z,30.55
2023-04-01T03:17:40.602Z,32.17
2023-04-01T03:20:09.615Z,30.00
2023-04-01T03:22:36.809Z,33.20
2023-04-01T03:25:06.374Z,29.80
2023-04-01T03:27:33.489Z,30.02
2023-04-01T03:30:00.886Z,29.55
2023-04-01T03:32:30.834Z,28.33
2023-04-01T03:34:57.970Z,27.60
2023-04-01T03:37:26.095Z,29.83
2023-04-01T03:39:53.323Z,31.23
2023-04-01T03:42:20.450Z,32.85
2023-04-01T03:44:47.559Z,34.42
2023-04-01T03:47:14.934Z,35.60
2023-04-01T03:49:42.148Z,35.22
2023-04-01T03:52:11.984Z,33.50
2023-04-01T03:54:39.214Z,31.00
2023-04-01T03:57:07.414Z,34.45
2023-04-01T03:59:35.945Z,29.20
2023-04-01T04:02:03.938Z,31.77
2023-04-01T04:04:31.232Z,30.23
2023-04-01T04:06:58.757Z,24.08
2023-04-01T04:09:26.778Z,26.33
2023-04-01T04:11:54.972Z,25.98
2023-04-01T04:14:22.065Z,22.70
2023-04-01T04:16:50.023Z,24.38
2023-04-01T04:19:17.152Z,26.02
2023-04-01T04:21:44.721Z,28.55
2023-04-01T04:24:12.413Z,29.77
2023-04-01T04:27:03.418Z,25.07
2023-04-01T04:29:30.986Z,24.38
2023-04-01T04:31:58.360Z,26.60
2023-04-01T04:34:25.782Z,30.05
2023-04-01T04:36:52.961Z,26.05
2023-04-01T04:39:21.533Z,23.45
2023-04-01T04:41:49.939Z,26.20
2023-04-01T04:44:17.188Z,30.73
2023-04-01T04:46:44.609Z,29.25
2023-04-01T04:49:16.295Z,29.73
2023-04-01T04:51:43.795Z,25.92
2023-04-01T04:54:11.700Z,30.13
2023-04-01T04:56:57.124Z,34.58
2023-04-01T04:59:26.221Z,31.33
2023-04-01T05:02:13.580Z,31.60
2023-04-01T05:04:40.785Z,29.20
2023-04-01T05:07:10.905Z,25.15
2023-04-01T05:09:38.020Z,27.20
2023-04-01T05:12:05.738Z,28.52
2023-04-01T05:14:52.323Z,27.65
2023-04-01T05:17:19.485Z,25.20
2023-04-01T05:19:46.614Z,29.02
2023-04-01T05:22:13.700Z,27.63
2023-04-01T05:24:41.537Z,26.90
2023-04-01T05:27:08.700Z,24.08
2023-04-01T05:32:09.267Z,24.08
2023-04-01T05:34:36.610Z,28.67
2023-04-01T05:37:03.722Z,29.98
2023-04-01T05:39:31.059Z,27.50
2023-04-01T05:41:59.021Z,24.95
2023-04-01T05:44:26.334Z,25.77
2023-04-01T05:47:19.690Z,24.90
2023-04-01T05:49:46.772Z,26.52
2023-04-01T05:52:13.961Z,22.40
2023-04-01T05:54:41.292Z,23.55
2023-04-01T05:57:08.535Z,25.60
2023-04-01T05:59:36.096Z,23.75
2023-04-01T06:02:03.930Z,24.58
2023-04-01T06:04:39.004Z,27.08
2023-04-01T06:07:18.170Z,22.08
2023-04-01T06:09:46.190Z,22.08
2023-04-01T06:12:22.365Z,23.95
2023-04-01T06:15:01.236Z,28.25
2023-04-01T06:18:17.666Z,29.08
2023-04-01T06:21:16.128Z,24.45
2023-04-01T06:24:19.155Z,25.95
2023-04-01T06:26:55.759Z,23.40
2023-04-01T06:30:08.265Z,22.73
2023-04-01T06:32:56.828Z,23.23
2023-04-01T06:35:29.980Z,24.55
2023-04-01T06:38:34.223Z,27.02
2023-04-01T06:41:23.455Z,25.83
2023-04-01T06:44:06.454Z,23.15
2023-04-01T06:47:10.328Z,28.45
2023-04-01T06:50:23.126Z,24.90
2023-04-01T06:53:48.362Z,28.00
2023-04-01T06:56:38.779Z,33.33
2023-04-01T06:59:18.914Z,28.48
2023-04-01T07:01:54.595Z,29.65
2023-04-01T07:04:30.820Z,24.23
2023-04-01T07:07:12.729Z,24.27
2023-04-01T07:09:56.545Z,29.00
2023-04-01T07:12:42.254Z,26.65
2023-04-01T07:15:35.142Z,29.92
2023-04-01T07:18:12.016Z,24.17
2023-04-01T07:20:39.807Z,24.17
2023-04-01T07:23:22.486Z,20.55
2023-04-01T07:26:24.692Z,20.20
2023-04-01T07:29:11.208Z,19.42
2023-04-01T07:31:55.111Z,24.63
2023-04-01T07:34:35.732Z,28.90
2023-04-01T07:37:03.024Z,25.60
2023-04-01T07:39:51.825Z,21.88
2023-04-01T07:42:42.697Z,20.38
2023-04-01T07:45:43.720Z,21.13
2023-04-01T07:48:32.358Z,41.75
2023-04-01T07:51:10.025Z,37.95
2023-04-01T07:54:02.016Z,37.90
2023-04-01T07:56:35.468Z,24.88
2023-04-01T07:59:13.113Z,22.80
2023-04-01T08:02:22.346Z,27.17
2023-04-01T08:04:59.737Z,24.08
2023-04-01T08:07:40.831Z,30.52
2023-04-01T08:10:34.160Z,28.33
2023-04-01T08:13:39.805Z,24.30
2023-04-01T08:16:56.590Z,20.83
2023-04-01T08:20:09.146Z,20.30
2023-04-01T08:22:46.330Z,24.73
2023-04-01T08:25:27.264Z,23.73
2023-04-01T08:28:10.982Z,25.65
2023-04-01T08:31:01.533Z,25.77
2023-04-01T08:33:33.719Z,24.85
2023-04-01T08:36:29.636Z,21.10
2023-04-01T08:39:25.851Z,25.80
2023-04-01T08:41:52.966Z,21.58
2023-04-01T08:45:08.321Z,28.13
2023-04-01T08:47:47.680Z,28.13
2023-04-01T08:50:33.052Z,26.77
2023-04-01T08:53:38.969Z,26.10
2023-04-01T08:56:18.700Z,24.83
2023-04-01T08:59:15.059Z,22.38
2023-04-01T09:02:24.482Z,27.25
2023-04-01T09:05:21.941Z,28.60
2023-04-01T09:07:54.987Z,26.60
2023-04-01T09:10:51.007Z,27.48
2023-04-01T09:14:12.003Z,26.35
2023-04-01T09:17:08.126Z,26.30
2023-04-01T09:19:46.573Z,30.23
2023-04-01T09:22:39.838Z,27.00
2023-04-01T09:25:22.578Z,21.77
2023-04-01T09:27:57.871Z,27.67
2023-04-01T09:31:05.613Z,24.67
2023-04-01T09:34:11.114Z,21.27
2023-04-01T09:37:37.556Z,23.95
2023-04-01T09:40:51.972Z,22.90
2023-04-01T09:43:51.093Z,26.52
2023-04-01T09:46:47.647Z,23.83
2023-04-01T09:49:43.358Z,21.83
2023-04-01T09:52:17.986Z,21.40
2023-04-01T09:54:45.694Z,19.13
2023-04-01T09:57:16.279Z,21.73
2023-04-01T10:00:16.758Z,24.50
2023-04-01T10:03:21.208Z,26.10
2023-04-01T10:05:49.578Z,21.58
2023-04-01T10:08:29.447Z,22.20
2023-04-01T10:11:28.151Z,24.45
2023-04-01T10:14:17.887Z,22.92
2023-04-01T10:17:06.639Z,20.88
2023-04-01T10:20:11.097Z,27.88
2023-04-01T10:22:57.915Z,20.27
2023-04-01T10:25:40.196Z,20.58
2023-04-01T10:28:48.385Z,20.02
2023-04-01T10:32:03.484Z,15.02
2023-04-01T10:34:42.695Z,21.42
2023-04-01T10:37:54.392Z,18.30
2023-04-01T10:40:58.440Z,14.02
2023-04-01T10:44:23.127Z,17.95
2023-04-01T10:47:18.469Z,18.83
2023-04-01T10:49:56.524Z,16.58
2023-04-01T10:52:30.575Z,23.00
2023-04-01T10:55:36.046Z,17.45
2023-04-01T11:02:15.850Z,11.02
2023-04-01T11:05:36.123Z,10.50
2023-04-01T11:08:49.916Z,23.25
2023-04-01T11:11:26.794Z,9.60
2023-04-01T11:14:18.538Z,13.52
2023-04-01T11:17:16.650Z,14.95
2023-04-01T11:20:03.653Z,20.67
2023-04-01T11:23:08.846Z,13.85
2023-04-01T11:26:05.080Z,14.90
2023-04-01T11:28:50.734Z,15.80
2023-04-01T11:31:50.841Z,15.75
2023-04-01T11:34:28.425Z,15.50
2023-04-01T11:37:20.788Z,22.52
2023-04-01T11:40:32.795Z,12.90
2023-04-01T11:43:45.437Z,19.45
2023-04-01T11:47:09.055Z,15.27
2023-04-01T11:49:54.893Z,14.55
2023-04-01T11:53:02.450Z,25.00
2023-04-01T11:55:54.817Z,14.52
2023-04-01T11:58:59.420Z,33.83
2023-04-01T12:01:57.745Z,13.35
2023-04-01T12:04:57.948Z,45.45
2023-04-01T12:07:45.944Z,12.50
2023-04-01T12:10:46.693Z,16.40
2023-04-01T12:13:36.980Z,20.23
2023-04-01T12:16:06.852Z,15.95
2023-04-01T12:18:51.614Z,13.18
2023-04-01T12:21:25.801Z,14.18
2023-04-01T12:24:11.251Z,15.32
2023-04-01T12:26:53.370Z,12.75
2023-04-01T12:29:23.089Z,17.58
2023-04-01T12:31:59.279Z,15.65
2023-04-01T12:34:59.355Z,18.27
2023-04-01T12:37:44.621Z,12.73
2023-04-01T12:40:36.564Z,23.20
2023-04-01T12:43:29.897Z,17.42
2023-04-01T12:46:12.734Z,25.58
2023-04-01T12:49:07.737Z,21.33
2023-04-01T12:52:07.973Z,17.05
2023-04-01T12:54:40.705Z,19.05
2023-04-01T12:57:42.057Z,13.25
2023-04-01T13:00:45.008Z,24.63
2023-04-01T13:03:30.470Z,20.48
2023-04-01T13:06:22.003Z,18.55
2023-04-01T13:09:05.887Z,13.77
2023-04-01T13:11:41.346Z,16.23
2023-04-01T13:14:45.743Z,16.67
2023-04-01T13:17:19.715Z,23.77
2023-04-01T13:20:06.103Z,15.90
2023-04-01T13:23:04.584Z,21.40
2023-04-01T13:25:51.048Z,13.15
2023-04-01T13:28:26.945Z,14.60
2023-04-01T13:31:38.251Z,10.55
2023-04-01T13:34:29.804Z,16.80
2023-04-01T13:37:34.407Z,18.80
2023-04-01T13:40:21.679Z,24.10
2023-04-01T13:43:13.877Z,13.23
2023-04-01T13:45:58.348Z,23.98
2023-04-01T13:48:44.101Z,17.60
2023-04-01T13:51:31.861Z,17.08
2023-04-01T13:54:09.222Z,18.67
2023-04-01T13:56:58.139Z,25.20
2023-04-01T13:59:34.258Z,21.05
2023-04-01T14:02:16.159Z,16.88
2023-04-01T14:05:13.885Z,12.27
2023-04-01T14:08:07.709Z,16.77
2023-04-01T14:10:37.835Z,16.90
2023-04-01T14:13:25.686Z,17.83
2023-04-01T14:16:21.210Z,13.00
2023-04-01T14:19:09.648Z,19.10
2023-04-01T14:21:51.764Z,14.13
2023-04-01T14:24:44.237Z,16.05
2023-04-01T14:27:39.341Z,21.73
2023-04-01T14:30:43.880Z,12.45
2023-04-01T14:33:17.871Z,14.35
2023-04-01T14:35:59.260Z,15.23
2023-04-01T14:38:49.670Z,17.35
2023-04-01T14:41:28.970Z,14.23
2023-04-01T14:44:04.999Z,21.85
2023-04-01T14:46:50.466Z,21.50
2023-04-01T14:49:47.317Z,18.42
2023-04-01T14:52:32.298Z,14.90
2023-04-01T14:55:00.121Z,13.95
2023-04-01T14:57:31.852Z,13.77
2023-04-01T15:00:14.971Z,14.73
2023-04-01T15:03:00.111Z,14.40
2023-04-01T15:05:50.152Z,18.40
2023-04-01T15:08:31.504Z,14.27
2023-04-01T15:11:35.642Z,18.65
2023-04-01T15:14:26.966Z,13.40
2023-04-01T15:17:11.737Z,20.25
2023-04-01T15:19:57.036Z,19.52
2023-04-01T15:23:00.214Z,20.63
2023-04-01T15:25:33.627Z,17.90
2023-04-01T15:28:22.215Z,17.88
2023-04-01T15:30:52.230Z,21.73
2023-04-01T15:33:33.638Z,20.63
2023-04-01T15:36:12.418Z,17.70
2023-04-01T15:39:01.727Z,21.25
2023-04-01T15:41:49.865Z,20.35
2023-04-01T15:44:31.974Z,18.38
2023-04-01T15:46:59.621Z,21.08
2023-04-01T15:49:44.795Z,22.92
2023-04-01T15:52:21.074Z,23.48
2023-04-01T15:55:09.739Z,20.42
2023-04-01T15:58:04.540Z,19.17
2023-04-01T16:01:08.644Z,23.48
2023-04-01T16:03:44.615Z,20.85
2023-04-01T16:06:31.639Z,20.15
2023-04-01T16:09:27.170Z,20.73
2023-04-01T16:12:22.948Z,17.25
2023-04-01T16:15:18.829Z,19.92
2023-04-01T16:17:48.614Z,21.52
2023-04-01T16:20:21.687Z,16.58
2023-04-01T16:22:58.251Z,18.80
2023-04-01T16:25:48.502Z,18.42
2023-04-01T16:28:36.670Z,22.73
2023-04-01T16:31:25.751Z,20.23
2023-04-01T16:34:01.651Z,21.30
2023-04-01T16:36:43.494Z,19.90
2023-04-01T16:39:22.610Z,20.15
2023-04-01T16:41:53.499Z,18.58
2023-04-01T16:49:39.446Z,21.13
2023-04-01T16:52:23.014Z,21.55
2023-04-01T16:55:13.666Z,27.95
2023-04-01T16:57:59.500Z,22.10
2023-04-01T17:00:28.479Z,17.00
2023-04-01T17:03:07.898Z,20.75
2023-04-01T17:06:07.839Z,18.27
2023-04-01T17:09:01.378Z,23.63
2023-04-01T17:12:00.625Z,18.50
2023-04-01T17:15:05.949Z,18.23
2023-04-01T17:17:46.747Z,19.20
2023-04-01T17:20:28.781Z,16.70
2023-04-01T17:23:13.666Z,23.08
2023-04-01T17:26:03.071Z,18.13
2023-04-01T17:28:47.108Z,15.32
2023-04-01T17:31:38.079Z,15.45
2023-04-01T17:36:52.445Z,19.30
2023-04-01T17:39:44.502Z,20.35
2023-04-01T17:42:38.386Z,15.98
2023-04-01T17:45:23.597Z,15.38
2023-04-01T17:48:29.770Z,20.63
2023-04-01T17:51:33.984Z,21.48
2023-04-01T17:54:42.083Z,20.00
2023-04-01T17:57:24.173Z,20.48
2023-04-01T18:00:13.247Z,21.13
2023-04-01T18:03:22.328Z,18.17
2023-04-01T18:06:08.976Z,16.17
2023-04-01T18:08:54.811Z,16.95
2023-04-01T18:12:02.649Z,17.23
2023-04-01T18:15:07.572Z,17.90
2023-04-01T18:17:47.711Z,16.45
2023-04-01T18:21:03.571Z,19.38
2023-04-01T18:23:41.276Z,17.23
2023-04-01T18:26:20.667Z,14.90
2023-04-01T18:29:20.380Z,17.17
2023-04-01T18:31:54.863Z,19.90
2023-04-01T18:34:33.671Z,20.10
2023-04-01T18:37:33.126Z,19.45
2023-04-01T18:40:21.652Z,17.10
2023-04-01T18:43:18.294Z,18.83
2023-04-01T18:45:58.209Z,17.52
2023-04-01T18:49:10.521Z,20.52
2023-04-01T18:51:56.965Z,18.80
2023-04-01T18:54:43.689Z,17.33
2023-04-01T18:57:15.596Z,18.33
2023-04-01T18:59:52.758Z,22.70
2023-04-01T19:02:41.008Z,18.35
2023-04-01T19:05:20.058Z,21.10
2023-04-01T19:07:52.114Z,17.15
2023-04-01T19:10:42.105Z,18.48
2023-04-01T19:13:32.081Z,17.65
2023-04-01T19:16:06.236Z,20.73
2023-04-01T19:19:08.910Z,19.50
2023-04-01T19:21:47.838Z,21.35
2023-04-01T19:24:56.857Z,20.17
2023-04-01T19:27:51.528Z,21.52
2023-04-01T19:30:38.380Z,21.80
2023-04-01T19:33:22.691Z,16.90
2023-04-01T19:35:59.792Z,18.77
2023-04-01T19:38:39.019Z,18.13
2023-04-01T19:41:38.005Z,19.35
2023-04-01T19:44:07.883Z,16.13
2023-04-01T19:46:47.016Z,21.05
2023-04-01T19:49:33.006Z,21.25
2023-04-01T19:52:30.533Z,27.85
2023-04-01T19:55:27.223Z,25.35
2023-04-01T19:58:00.673Z,18.13
2023-04-01T20:00:53.122Z,21.65
2023-04-01T20:03:52.614Z,21.98
2023-04-01T20:06:45.127Z,18.50
2023-04-01T20:09:37.970Z,21.83
2023-04-01T20:12:29.280Z,20.60
2023-04-01T20:14:59.766Z,21.13
2023-04-01T20:17:39.060Z,22.58
2023-04-01T20:20:11.815Z,20.77
2023-04-01T20:22:45.134Z,21.98
2023-04-01T20:25:15.126Z,23.10
2023-04-01T20:27:56.588Z,24.45
2023-04-01T20:30:34.658Z,22.38
2023-04-01T20:33:07.761Z,20.90
2023-04-01T20:35:56.185Z,25.27
2023-04-01T20:38:32.155Z,19.02
2023-04-01T20:41:06.086Z,21.75
2023-04-01T20:44:09.538Z,23.05
2023-04-01T20:47:02.242Z,22.60
2023-04-01T20:49:41.563Z,22.77
2023-04-01T20:52:17.397Z,25.08
2023-04-01T20:55:15.276Z,22.73
2023-04-01T20:58:13.115Z,21.88
2023-04-01T21:01:00.542Z,19.67
2023-04-01T21:03:46.697Z,21.73
2023-04-01T21:06:31.212Z,35.58
2023-04-01T21:09:07.230Z,24.10
2023-04-01T21:12:13.688Z,23.63
2023-04-01T21:15:02.220Z,20.30
2023-04-01T21:17:39.795Z,22.67
2023-04-01T21:20:22.081Z,19.90
2023-04-01T21:23:26.053Z,21.23
2023-04-01T21:26:30.125Z,21.13
2023-04-01T21:29:09.776Z,22.65
2023-04-01T21:32:08.313Z,22.05
2023-04-01T21:34:43.204Z,24.40
2023-04-01T21:37:34.967Z,23.40
2023-04-01T21:40:21.108Z,23.40
2023-04-01T21:43:05.741Z,23.70
2023-04-01T21:46:11.136Z,23.45
2023-04-01T21:48:47.181Z,25.30
2023-04-01T21:51:43.757Z,24.35
2023-04-01T21:54:19.835Z,23.88
2023-04-01T21:57:01.766Z,24.25
2023-04-01T21:59:54.655Z,20.40
2023-04-01T22:02:30.617Z,25.48
2023-04-01T22:05:03.862Z,28.58
2023-04-01T22:07:34.907Z,28.77
2023-04-01T22:12:51.358Z,22.50
2023-04-01T22:15:26.607Z,27.95
2023-04-01T22:18:05.508Z,23.33
2023-04-01T22:20:46.222Z,20.63
2023-04-01T22:23:27.478Z,25.45
2023-04-01T22:26:07.928Z,24.00
2023-04-01T22:28:45.121Z,22.67
2023-04-01T22:31:17.893Z,26.08
2023-04-01T22:34:02.767Z,24.83
2023-04-01T22:36:55.093Z,20.65
2023-04-01T22:39:42.350Z,23.20
2023-04-01T22:42:42.015Z,26.73
2023-04-01T22:45:27.301Z,26.17
2023-04-01T22:48:03.071Z,25.83
2023-04-01T22:50:41.105Z,27.10
2023-04-01T22:53:24.126Z,25.40
2023-04-01T22:55:54.114Z,24.45
2023-04-01T22:58:33.998Z,26.02
2023-04-01T23:01:22.881Z,29.38
2023-04-01T23:03:52.554Z,25.83
2023-04-01T23:06:28.918Z,24.40
2023-04-01T23:09:03.147Z,28.63
2023-04-01T23:11:38.939Z,27.90
2023-04-01T23:14:29.926Z,30.00
2023-04-01T23:19:27.942Z,28.45
2023-04-01T23:22:13.452Z,27.73
2023-04-01T23:24:54.884Z,26.08
2023-04-01T23:27:25.896Z,32.03
2023-04-01T23:32:27.191Z,30.90
2023-04-01T23:35:01.723Z,28.95
2023-04-01T23:37:29.908Z,39.33
2023-04-01T23:39:59.996Z,39.00
2023-04-01T23:42:42.366Z,31.25
2023-04-01T23:45:20.997Z,34.03
2023-04-01T23:47:51.542Z,37.40
2023-04-01T23:50:22.131Z,32.25
2023-04-01T23:52:56.612Z,40.10
2023-04-01T23:55:27.629Z,37.22
